createdAt,value
2023-03-19T00:01:08.294Z,61.68
2023-03-19T00:06:00.362Z,61.57
2023-03-19T00:10:52.528Z,61.83
2023-03-19T00:15:44.281Z,62.07
2023-03-19T00:20:36.329Z,63.25
2023-03-19T00:25:28.098Z,63.41
2023-03-19T00:30:20.190Z,63.25
2023-03-19T00:35:12.118Z,64.01
2023-03-19T00:40:05.299Z,64.49
2023-03-19T00:44:58.718Z,65.29
2023-03-19T00:49:50.741Z,65.07
2023-03-19T00:54:43.000Z,64.96
2023-03-19T00:59:34.735Z,65.05
2023-03-19T01:04:28.113Z,64.80
2023-03-19T01:09:20.241Z,65.23
2023-03-19T01:14:12.578Z,66.01
2023-03-19T01:19:04.269Z,66.21
2023-03-19T01:23:57.116Z,67.06
2023-03-19T01:28:50.127Z,67.22
2023-03-19T01:33:44.180Z,68.04
2023-03-19T01:38:42.682Z,68.19
2023-03-19T01:43:39.606Z,68.58
2023-03-19T01:49:02.940Z,68.76
2023-03-19T01:54:00.514Z,67.77
2023-03-19T01:59:21.667Z,67.81
2023-03-19T02:04:34.533Z,68.05
2023-03-19T02:09:27.824Z,67.72
2023-03-19T02:14:19.620Z,68.03
2023-03-19T02:19:16.969Z,67.77
2023-03-19T02:24:12.453Z,68.22
2023-03-19T02:29:27.073Z,68.07
2023-03-19T02:34:21.728Z,68.65
2023-03-19T02:39:23.420Z,68.34
2023-03-19T02:44:17.361Z,68.66
2023-03-19T02:49:09.793Z,68.78
2023-03-19T02:54:01.560Z,68.86
2023-03-19T02:58:53.437Z,68.68
2023-03-19T03:03:45.307Z,68.71
2023-03-19T03:08:37.355Z,68.25
2023-03-19T03:13:29.588Z,68.51
2023-03-19T03:18:21.346Z,68.29
2023-03-19T03:23:13.098Z,68.46
2023-03-19T03:28:04.898Z,68.90
2023-03-19T03:32:56.684Z,68.72
2023-03-19T03:37:51.867Z,69.19
2023-03-19T03:42:44.156Z,69.13
2023-03-19T03:47:37.267Z,68.81
2023-03-19T03:52:31.509Z,68.42
2023-03-19T03:57:24.616Z,68.41
2023-03-19T04:02:16.878Z,67.78
2023-03-19T04:07:08.945Z,68.15
2023-03-19T04:12:05.783Z,68.22
2023-03-19T04:16:57.622Z,68.87
2023-03-19T04:21:49.562Z,68.90
2023-03-19T04:26:41.684Z,69.08
2023-03-19T04:31:33.751Z,68.95
2023-03-19T04:36:25.989Z,68.91
2023-03-19T04:41:17.777Z,69.03
2023-03-19T04:46:23.655Z,68.93
2023-03-19T04:51:16.839Z,68.54
2023-03-19T04:56:09.259Z,68.11
2023-03-19T05:01:01.667Z,68.06
2023-03-19T05:06:20.205Z,68.11
2023-03-19T05:11:12.127Z,67.87
2023-03-19T05:16:20.765Z,68.26
2023-03-19T05:21:13.730Z,68.18
2023-03-19T05:26:06.797Z,68.49
2023-03-19T05:31:17.039Z,68.55
2023-03-19T05:36:13.127Z,68.32
2023-03-19T05:41:14.646Z,68.75
2023-03-19T05:46:16.603Z,68.84
2023-03-19T05:51:09.545Z,68.81
2023-03-19T05:56:06.095Z,68.78
2023-03-19T06:01:07.176Z,68.14
2023-03-19T06:05:58.987Z,68.22
2023-03-19T06:11:04.672Z,67.57
2023-03-19T06:15:58.366Z,67.58
2023-03-19T06:20:57.632Z,66.93
2023-03-19T06:25:49.395Z,66.92
2023-03-19T06:30:42.326Z,66.51
2023-03-19T06:35:57.139Z,66.47
2023-03-19T06:40:48.950Z,66.95
2023-03-19T06:45:40.781Z,66.51
2023-03-19T06:50:32.887Z,66.97
2023-03-19T06:55:24.750Z,66.66
2023-03-19T07:00:18.260Z,67.15
2023-03-19T07:05:09.984Z,67.23
2023-03-19T07:10:01.918Z,67.13
2023-03-19T07:14:57.922Z,67.52
2023-03-19T07:19:49.886Z,67.03
2023-03-19T07:24:41.931Z,66.93
2023-03-19T07:29:33.734Z,66.54
2023-03-19T07:34:25.624Z,66.33
2023-03-19T07:39:17.346Z,65.62
2023-03-19T07:44:09.044Z,64.53
2023-03-19T07:49:00.790Z,62.43
2023-03-19T07:53:52.543Z,61.23
2023-03-19T07:58:45.485Z,61.43
2023-03-19T08:03:37.276Z,60.87
2023-03-19T08:08:29.002Z,59.70
2023-03-19T08:13:20.759Z,60.07
2023-03-19T08:18:13.620Z,59.05
2023-03-19T08:23:06.286Z,52.86
2023-03-19T08:27:59.291Z,50.67
2023-03-19T08:32:51.362Z,52.75
2023-03-19T08:37:43.159Z,52.65
2023-03-19T08:42:34.965Z,51.85
2023-03-19T08:47:27.142Z,51.60
2023-03-19T08:52:20.038Z,53.70
2023-03-19T08:57:11.821Z,51.21
2023-03-19T09:02:03.678Z,51.58
2023-03-19T09:06:55.908Z,52.52
2023-03-19T09:11:48.765Z,49.35
2023-03-19T09:16:40.671Z,47.24
2023-03-19T09:21:32.406Z,48.01
2023-03-19T09:26:24.045Z,48.04
2023-03-19T09:31:15.966Z,49.04
2023-03-19T09:36:08.194Z,49.42
2023-03-19T09:41:01.603Z,50.80
2023-03-19T09:45:53.513Z,50.60
2023-03-19T09:50:47.499Z,51.29
2023-03-19T09:55:42.146Z,52.10
2023-03-19T10:00:37.102Z,51.94
2023-03-19T10:06:06.272Z,51.35
2023-03-19T10:11:35.462Z,50.38
2023-03-19T10:16:29.068Z,50.22
2023-03-19T10:21:31.936Z,51.02
2023-03-19T10:26:30.060Z,51.08
2023-03-19T10:31:40.723Z,52.93
2023-03-19T10:36:36.232Z,53.08
2023-03-19T10:41:55.575Z,52.69
2023-03-19T10:46:47.343Z,52.35
2023-03-19T10:51:40.090Z,51.83
2023-03-19T10:56:34.379Z,51.69
2023-03-19T11:01:35.225Z,52.54
2023-03-19T11:06:34.088Z,53.44
2023-03-19T11:11:42.473Z,52.19
2023-03-19T11:16:56.526Z,52.16
2023-03-19T11:22:09.434Z,50.91
2023-03-19T11:27:02.252Z,53.58
2023-03-19T11:32:21.662Z,51.87
2023-03-19T11:37:42.025Z,49.60
2023-03-19T11:42:51.027Z,50.95
2023-03-19T11:48:07.152Z,53.31
2023-03-19T11:53:17.523Z,52.53
2023-03-19T11:58:35.569Z,53.23
2023-03-19T12:03:37.137Z,53.99
2023-03-19T12:08:31.990Z,51.50
2023-03-19T12:13:55.893Z,50.75
2023-03-19T12:18:47.540Z,52.33
2023-03-19T12:24:04.454Z,51.30
2023-03-19T12:29:16.894Z,51.01
2023-03-19T12:34:22.053Z,51.40
2023-03-19T12:39:21.201Z,51.95
2023-03-19T12:44:26.758Z,51.18
2023-03-19T12:49:30.428Z,49.31
2023-03-19T12:54:34.686Z,48.42
2023-03-19T12:59:51.588Z,50.49
2023-03-19T13:05:22.941Z,53.01
2023-03-19T13:10:24.906Z,54.17
2023-03-19T13:15:27.956Z,53.28
2023-03-19T13:20:24.251Z,53.19
2023-03-19T13:25:18.472Z,54.40
2023-03-19T13:30:10.331Z,53.01
2023-03-19T13:35:40.936Z,55.38
2023-03-19T13:40:47.893Z,55.95
2023-03-19T13:45:39.655Z,58.03
2023-03-19T13:50:52.268Z,60.10
2023-03-19T13:55:57.620Z,56.95
2023-03-19T14:00:58.727Z,54.51
2023-03-19T14:05:53.501Z,53.81
2023-03-19T14:10:54.172Z,54.09
2023-03-19T14:15:51.658Z,54.44
2023-03-19T14:21:00.775Z,56.30
2023-03-19T14:26:17.316Z,58.60
2023-03-19T14:31:26.883Z,58.40
2023-03-19T14:36:21.955Z,58.52
2023-03-19T14:41:19.708Z,61.44
2023-03-19T14:46:23.704Z,63.74
2023-03-19T14:51:53.265Z,65.53
2023-03-19T14:56:48.034Z,63.50
2023-03-19T15:01:41.569Z,63.86
2023-03-19T15:06:37.916Z,66.46
2023-03-19T15:12:03.745Z,67.39
2023-03-19T15:17:27.340Z,67.09
2023-03-19T15:22:26.308Z,66.63
2023-03-19T15:27:21.022Z,62.49
2023-03-19T15:32:15.671Z,61.80
2023-03-19T15:37:13.856Z,60.26
2023-03-19T15:42:05.866Z,62.34
2023-03-19T15:46:58.496Z,64.18
2023-03-19T15:51:53.575Z,65.36
2023-03-19T15:56:46.319Z,65.16
2023-03-19T16:01:38.526Z,66.75
2023-03-19T16:06:32.811Z,76.97
2023-03-19T16:11:35.483Z,96.53
2023-03-19T16:16:32.741Z,70.91
2023-03-19T16:21:38.029Z,70.28
2023-03-19T16:26:31.269Z,82.75
2023-03-19T16:31:32.214Z,83.85
2023-03-19T16:36:28.824Z,84.03
2023-03-19T16:41:32.504Z,83.99
2023-03-19T16:46:26.142Z,83.48
2023-03-19T16:51:21.346Z,81.85
2023-03-19T16:56:15.112Z,81.49
2023-03-19T17:01:16.684Z,81.17
2023-03-19T17:06:13.210Z,80.66
2023-03-19T17:11:05.652Z,79.98
2023-03-19T17:15:59.898Z,80.58
2023-03-19T17:21:21.486Z,82.00
2023-03-19T17:26:19.584Z,82.31
2023-03-19T17:31:24.313Z,82.88
2023-03-19T17:36:16.130Z,83.63
2023-03-19T17:41:19.906Z,81.85
2023-03-19T17:46:36.078Z,82.45
2023-03-19T17:51:28.509Z,82.44
2023-03-19T17:56:25.383Z,81.97
2023-03-19T18:01:21.377Z,81.68
2023-03-19T18:06:19.306Z,82.27
2023-03-19T18:11:11.296Z,82.47
2023-03-19T18:16:05.832Z,82.32
2023-03-19T18:20:59.529Z,82.58
2023-03-19T18:25:52.278Z,82.79
2023-03-19T18:30:45.463Z,83.04
2023-03-19T18:35:40.324Z,82.23
2023-03-19T18:40:33.129Z,82.80
2023-03-19T18:45:30.361Z,83.00
2023-03-19T18:50:29.281Z,82.42
2023-03-19T18:55:26.762Z,82.64
2023-03-19T19:00:23.110Z,82.27
2023-03-19T19:05:20.244Z,82.07
2023-03-19T19:10:12.713Z,81.43
2023-03-19T19:15:05.390Z,81.69
2023-03-19T19:19:57.060Z,81.67
2023-03-19T19:24:48.901Z,81.84
2023-03-19T19:29:40.652Z,81.41
2023-03-19T19:34:32.276Z,81.71
2023-03-19T19:39:23.969Z,81.85
2023-03-19T19:44:20.311Z,81.66
2023-03-19T19:49:15.477Z,82.11
2023-03-19T19:54:07.225Z,81.43
2023-03-19T19:58:59.828Z,81.11
2023-03-19T20:03:52.202Z,80.15
2023-03-19T20:08:44.502Z,81.40
2023-03-19T20:13:37.832Z,81.58
2023-03-19T20:18:33.414Z,81.42
2023-03-19T20:23:26.277Z,79.99
2023-03-19T20:33:46.109Z,79.04
2023-03-19T20:38:37.781Z,78.54
2023-03-19T20:43:32.848Z,78.76
2023-03-19T20:48:26.316Z,79.79
2023-03-19T20:53:18.329Z,78.73
2023-03-19T20:58:36.867Z,78.40
2023-03-19T21:03:31.530Z,78.51
2023-03-19T21:08:32.566Z,78.15
2023-03-19T21:13:24.290Z,78.63
2023-03-19T22:10:52.978Z,74.96
